createdAt,value
2017-05-21T00:00:37.920Z,2.76
2017-05-21T00:03:06.743Z,3.08
2017-05-21T00:05:35.564Z,3.10
2017-05-21T00:08:04.396Z,2.80
2017-05-21T00:10:32.454Z,3.50
2017-05-21T00:13:01.300Z,3.68
2017-05-21T00:15:30.124Z,3.22
2017-05-21T00:17:58.963Z,5.94
2017-05-21T00:20:27.807Z,3.26
2017-05-21T00:22:56.673Z,2.40
2017-05-21T00:25:25.523Z,3.52
2017-05-21T00:27:54.370Z,3.44
2017-05-21T00:30:23.202Z,3.80
2017-05-21T00:32:52.029Z,3.50
2017-05-21T00:35:20.879Z,3.28
2017-05-21T00:37:49.700Z,5.86
2017-05-21T00:40:18.533Z,3.04
2017-05-21T00:42:47.382Z,3.88
2017-05-21T00:45:16.219Z,4.82
2017-05-21T00:47:45.052Z,4.50
2017-05-21T00:50:13.902Z,4.20
2017-05-21T00:52:42.752Z,4.34
2017-05-21T00:55:11.583Z,3.88
2017-05-21T00:57:40.420Z,3.22
2017-05-21T01:00:09.260Z,2.72
2017-05-21T01:02:38.105Z,3.86
2017-05-21T01:05:06.936Z,3.16
2017-05-21T01:07:35.779Z,5.88
2017-05-21T01:10:04.603Z,3.76
2017-05-21T01:12:33.458Z,2.92
2017-05-21T01:15:02.279Z,3.22
2017-05-21T01:17:31.110Z,3.76
2017-05-21T01:19:59.949Z,3.76
2017-05-21T01:22:28.771Z,3.72
2017-05-21T01:24:57.603Z,3.52
2017-05-21T01:27:26.442Z,5.38
2017-05-21T01:29:55.277Z,3.24
2017-05-21T01:32:24.108Z,3.64
2017-05-21T01:34:52.949Z,3.94
2017-05-21T01:37:21.794Z,4.32
2017-05-21T01:39:50.638Z,3.60
2017-05-21T01:42:19.475Z,5.16
2017-05-21T01:44:48.315Z,4.28
2017-05-21T01:47:17.170Z,5.12
2017-05-21T01:49:46.017Z,4.12
2017-05-21T01:52:14.835Z,3.40
2017-05-21T01:54:43.664Z,3.80
2017-05-21T01:57:12.503Z,4.06
2017-05-21T01:59:41.337Z,4.26
2017-05-21T02:02:10.172Z,4.60
2017-05-21T02:04:39.025Z,4.34
2017-05-21T02:07:07.849Z,4.16
2017-05-21T02:09:36.692Z,4.48
2017-05-21T02:12:05.520Z,5.72
2017-05-21T02:14:33.583Z,4.72
2017-05-21T02:17:02.414Z,5.62
2017-05-21T02:19:31.249Z,4.70
2017-05-21T02:22:00.074Z,5.72
2017-05-21T02:24:28.923Z,6.38
2017-05-21T02:26:57.767Z,5.02
2017-05-21T02:29:26.595Z,4.98
2017-05-21T02:31:55.450Z,4.84
2017-05-21T02:34:24.294Z,4.98
2017-05-21T02:36:53.123Z,4.94
2017-05-21T02:39:21.956Z,4.18
2017-05-21T02:41:50.783Z,3.52
2017-05-21T02:44:19.619Z,4.98
2017-05-21T02:46:48.447Z,4.50
2017-05-21T02:49:17.292Z,4.46
2017-05-21T02:51:45.350Z,5.14
2017-05-21T02:54:14.200Z,5.00
2017-05-21T02:56:43.020Z,4.08
2017-05-21T02:59:11.870Z,4.86
2017-05-21T03:01:40.716Z,5.20
2017-05-21T03:04:09.543Z,5.24
2017-05-21T03:06:38.387Z,6.84
2017-05-21T03:09:07.215Z,5.37
2017-05-21T03:11:36.046Z,5.28
2017-05-21T03:14:04.884Z,6.05
2017-05-21T03:16:33.743Z,7.08
2017-05-21T03:19:02.580Z,5.92
2017-05-21T03:21:31.425Z,5.88
2017-05-21T03:24:00.452Z,5.16
2017-05-21T03:26:29.545Z,4.24
2017-05-21T03:28:58.639Z,4.06
2017-05-21T03:31:27.737Z,3.94
2017-05-21T03:33:56.568Z,4.60
2017-05-21T03:36:25.513Z,3.46
2017-05-21T03:38:54.376Z,3.72
2017-05-21T03:41:23.199Z,4.94
2017-05-21T03:43:52.125Z,4.72
2017-05-21T03:46:20.971Z,4.50
2017-05-21T03:48:49.831Z,5.00
2017-05-21T03:51:18.671Z,4.78
2017-05-21T03:53:47.501Z,6.08
2017-05-21T03:56:16.354Z,4.63
2017-05-21T03:58:46.123Z,6.00
2017-05-21T04:01:14.214Z,4.80
2017-05-21T04:03:43.071Z,4.50
2017-05-21T04:06:11.910Z,5.53
2017-05-21T04:08:40.739Z,5.80
2017-05-21T04:11:09.569Z,4.68
2017-05-21T04:13:38.435Z,4.62
2017-05-21T04:16:07.267Z,5.30
2017-05-21T04:18:36.104Z,5.10
2017-05-21T04:21:04.928Z,4.36
2017-05-21T04:23:33.800Z,5.06
2017-05-21T04:26:02.645Z,5.16
2017-05-21T04:28:31.480Z,3.98
2017-05-21T04:31:00.354Z,4.34
2017-05-21T04:33:29.359Z,4.10
2017-05-21T04:35:58.237Z,4.36
2017-05-21T04:38:27.022Z,4.04
2017-05-21T04:40:55.880Z,4.86
2017-05-21T04:43:24.718Z,3.96
2017-05-21T04:45:53.587Z,4.58
2017-05-21T04:48:22.420Z,4.84
2017-05-21T04:50:51.278Z,4.08
2017-05-21T04:53:20.117Z,3.62
2017-05-21T04:55:48.946Z,4.06
2017-05-21T04:58:17.021Z,4.20
2017-05-21T05:00:45.869Z,4.76
2017-05-21T05:03:14.705Z,4.76
2017-05-21T05:05:43.536Z,4.72
2017-05-21T05:08:12.392Z,4.42
2017-05-21T05:10:40.472Z,5.38
2017-05-21T05:13:09.326Z,4.20
2017-05-21T05:15:38.183Z,4.34
2017-05-21T05:18:07.011Z,4.68
2017-05-21T05:20:35.850Z,3.84
2017-05-21T05:23:04.701Z,4.14
2017-05-21T05:25:32.776Z,3.56
2017-05-21T05:28:01.610Z,3.96
2017-05-21T05:30:30.450Z,4.46
2017-05-21T05:32:59.272Z,3.94
2017-05-21T05:35:28.119Z,4.92
2017-05-21T05:37:56.980Z,4.82
2017-05-21T05:40:25.803Z,4.44
2017-05-21T05:42:54.659Z,4.70
2017-05-21T05:45:23.486Z,4.04
2017-05-21T05:47:53.315Z,6.04
2017-05-21T05:50:22.158Z,4.66
2017-05-21T05:52:51.012Z,4.26
2017-05-21T05:55:19.858Z,4.94
2017-05-21T05:57:48.706Z,3.74
2017-05-21T06:00:17.582Z,5.28
2017-05-21T06:02:46.439Z,5.20
2017-05-21T06:05:15.269Z,5.28
2017-05-21T06:07:44.119Z,4.68
2017-05-21T06:10:12.970Z,4.76
2017-05-21T06:12:41.808Z,5.04
2017-05-21T06:15:10.676Z,4.42
2017-05-21T06:17:39.506Z,4.78
2017-05-21T06:20:08.347Z,4.28
2017-05-21T06:22:37.179Z,4.10
2017-05-21T06:25:06.032Z,5.70
2017-05-21T06:27:34.882Z,5.16
2017-05-21T06:30:03.720Z,5.20
2017-05-21T06:32:32.559Z,5.12
2017-05-21T06:35:01.396Z,4.90
2017-05-21T06:37:30.245Z,5.28
2017-05-21T06:39:59.081Z,5.44
2017-05-21T06:42:27.907Z,7.40
2017-05-21T06:44:56.748Z,5.56
2017-05-21T06:47:25.597Z,4.82
2017-05-21T06:49:54.442Z,5.86
2017-05-21T06:52:23.268Z,5.26
2017-05-21T06:54:52.119Z,5.82
2017-05-21T06:57:20.944Z,7.04
2017-05-21T06:59:49.810Z,5.26
2017-05-21T07:02:18.640Z,5.44
2017-05-21T07:04:47.476Z,6.86
2017-05-21T07:07:16.328Z,5.80
2017-05-21T07:09:45.162Z,4.14
2017-05-21T07:12:14.005Z,6.36
2017-05-21T07:14:42.868Z,6.04
2017-05-21T07:17:11.695Z,5.10
2017-05-21T07:19:40.543Z,4.82
2017-05-21T07:22:09.398Z,4.76
2017-05-21T07:24:38.244Z,4.18
2017-05-21T07:27:07.069Z,3.76
2017-05-21T07:29:35.927Z,4.62
2017-05-21T07:32:04.753Z,4.64
2017-05-21T07:34:33.586Z,4.62
2017-05-21T07:37:02.427Z,3.58
2017-05-21T07:39:31.257Z,4.54
2017-05-21T07:42:00.088Z,5.06
2017-05-21T07:44:28.951Z,4.40
2017-05-21T07:46:57.818Z,4.90
2017-05-21T07:49:26.639Z,3.92
2017-05-21T07:51:55.475Z,3.78
2017-05-21T07:54:24.332Z,3.50
2017-05-21T07:56:53.171Z,3.62
2017-05-21T07:59:22.045Z,3.60
2017-05-21T08:01:50.892Z,6.34
2017-05-21T08:04:19.717Z,2.88
2017-05-21T08:06:48.569Z,4.44
2017-05-21T08:09:17.420Z,2.48
2017-05-21T08:11:45.484Z,3.46
2017-05-21T08:14:14.320Z,3.12
2017-05-21T08:16:43.171Z,2.30
2017-05-21T08:19:12.008Z,2.70
2017-05-21T08:21:40.876Z,3.02
2017-05-21T08:24:09.726Z,3.26
2017-05-21T08:26:38.559Z,3.10
2017-05-21T08:29:07.409Z,5.10
2017-05-21T08:31:36.251Z,5.58
2017-05-21T08:34:05.192Z,2.16
2017-05-21T08:36:34.051Z,2.74
2017-05-21T08:39:02.875Z,2.60
2017-05-21T08:41:31.716Z,3.48
2017-05-21T08:44:00.571Z,3.24
2017-05-21T08:46:29.407Z,3.12
2017-05-21T08:48:58.267Z,2.88
2017-05-21T08:51:27.132Z,2.58
2017-05-21T08:53:55.959Z,2.98
2017-05-21T08:56:24.806Z,2.98
2017-05-21T08:58:53.656Z,2.40
2017-05-21T09:01:22.490Z,2.52
2017-05-21T09:03:51.347Z,2.72
2017-05-21T09:06:20.192Z,2.42
2017-05-21T09:08:49.051Z,2.96
2017-05-21T09:11:17.899Z,2.60
2017-05-21T09:13:46.841Z,2.54
2017-05-21T09:16:15.684Z,1.94
2017-05-21T09:18:44.516Z,1.70
2017-05-21T09:21:13.378Z,2.18
2017-05-21T09:23:42.210Z,2.20
2017-05-21T09:26:11.076Z,2.68
2017-05-21T09:28:39.903Z,2.40
2017-05-21T09:31:08.757Z,1.94
2017-05-21T09:33:37.579Z,2.34
2017-05-21T09:36:06.428Z,2.82
2017-05-21T09:38:35.283Z,2.06
2017-05-21T09:41:04.108Z,2.12
2017-05-21T09:43:32.949Z,2.40
2017-05-21T09:46:01.776Z,2.20
2017-05-21T09:48:30.647Z,2.36
2017-05-21T09:50:59.491Z,2.36
2017-05-21T09:53:28.476Z,2.18
2017-05-21T09:55:57.333Z,2.10
2017-05-21T09:58:26.174Z,2.24
2017-05-21T10:00:55.022Z,2.34
2017-05-21T10:03:23.899Z,2.82
2017-05-21T10:05:52.748Z,2.44
2017-05-21T10:08:21.611Z,2.74
2017-05-21T10:10:50.465Z,1.80
2017-05-21T10:13:19.316Z,2.38
2017-05-21T10:15:48.157Z,2.02
2017-05-21T10:18:16.997Z,1.94
2017-05-21T10:20:45.852Z,2.08
2017-05-21T10:23:14.685Z,3.54
2017-05-21T10:25:43.513Z,2.60
2017-05-21T10:28:12.345Z,2.62
2017-05-21T10:30:41.181Z,2.50
2017-05-21T10:33:10.034Z,1.82
2017-05-21T10:35:39.279Z,2.90
2017-05-21T10:38:08.160Z,2.50
2017-05-21T10:40:37.016Z,2.40
2017-05-21T10:43:05.868Z,2.54
2017-05-21T10:45:34.716Z,2.32
2017-05-21T10:48:03.553Z,2.40
2017-05-21T10:50:32.410Z,2.20
2017-05-21T10:53:01.270Z,2.88
2017-05-21T10:55:30.131Z,2.96
2017-05-21T10:57:58.970Z,2.74
2017-05-21T11:00:27.052Z,2.36
2017-05-21T11:02:55.897Z,2.24
2017-05-21T11:05:24.736Z,2.90
2017-05-21T11:07:53.588Z,2.28
2017-05-21T11:10:22.413Z,2.40
2017-05-21T11:12:51.279Z,2.44
2017-05-21T11:15:20.119Z,4.30
2017-05-21T11:17:48.971Z,3.06
2017-05-21T11:20:17.813Z,2.40
2017-05-21T11:22:46.636Z,2.24
2017-05-21T11:25:15.583Z,2.92
2017-05-21T11:27:44.440Z,2.00
2017-05-21T11:30:12.519Z,2.36
2017-05-21T11:32:41.700Z,3.38
2017-05-21T11:35:09.750Z,2.64
2017-05-21T11:37:38.579Z,2.98
2017-05-21T11:40:07.860Z,2.66
2017-05-21T11:42:36.760Z,2.68
2017-05-21T11:45:05.696Z,2.50
2017-05-21T11:47:34.532Z,3.06
2017-05-21T11:50:03.404Z,2.30
2017-05-21T11:52:32.243Z,2.74
2017-05-21T11:55:01.084Z,3.14
2017-05-21T11:57:29.929Z,2.84
2017-05-21T11:59:58.752Z,3.04
2017-05-21T12:02:26.825Z,2.44
2017-05-21T12:04:55.692Z,2.82
2017-05-21T12:07:24.536Z,2.88
2017-05-21T12:09:53.392Z,2.62
2017-05-21T12:12:22.220Z,3.40
2017-05-21T12:14:51.052Z,2.24
2017-05-21T12:17:19.908Z,2.02
2017-05-21T12:19:48.732Z,2.48
2017-05-21T12:22:17.599Z,2.24
2017-05-21T12:24:46.432Z,2.40
2017-05-21T12:27:15.270Z,2.76
2017-05-21T12:29:44.126Z,2.30
2017-05-21T12:32:12.978Z,2.78
2017-05-21T12:34:41.812Z,3.02
2017-05-21T12:37:10.655Z,2.60
2017-05-21T12:39:38.737Z,2.32
2017-05-21T12:42:07.594Z,2.06
2017-05-21T12:44:36.419Z,2.18
2017-05-21T12:47:05.270Z,2.48
2017-05-21T12:49:34.116Z,2.54
2017-05-21T12:52:02.958Z,2.10
2017-05-21T12:54:31.783Z,1.80
2017-05-21T12:57:00.643Z,1.96
2017-05-21T12:59:29.467Z,2.22
2017-05-21T13:01:58.293Z,1.90
2017-05-21T13:04:27.132Z,6.62
2017-05-21T13:06:55.980Z,2.26
2017-05-21T13:09:24.831Z,1.94
2017-05-21T13:11:53.746Z,2.44
2017-05-21T13:14:22.608Z,2.24
2017-05-21T13:16:51.452Z,2.42
2017-05-21T13:19:20.283Z,3.22
2017-05-21T13:21:49.134Z,2.72
2017-05-21T13:24:17.955Z,2.34
2017-05-21T13:26:46.796Z,2.56
2017-05-21T13:29:15.655Z,4.10
2017-05-21T13:31:44.492Z,3.40
2017-05-21T13:34:13.343Z,1.90
2017-05-21T13:36:42.177Z,2.54
2017-05-21T13:39:11.024Z,2.10
2017-05-21T13:41:39.874Z,1.70
2017-05-21T13:44:08.715Z,2.18
2017-05-21T13:46:37.555Z,5.24
2017-05-21T13:49:06.400Z,2.14
2017-05-21T13:51:35.241Z,4.84
2017-05-21T13:54:04.082Z,1.86
2017-05-21T13:56:32.923Z,3.44
2017-05-21T13:59:01.762Z,2.24
2017-05-21T14:01:30.596Z,2.16
2017-05-21T14:03:59.428Z,1.88
2017-05-21T14:06:28.281Z,1.80
2017-05-21T14:08:57.108Z,1.76
2017-05-21T14:11:25.966Z,1.78
2017-05-21T14:13:54.795Z,1.88
2017-05-21T14:16:23.628Z,3.66
2017-05-21T14:18:52.495Z,2.18
2017-05-21T14:21:21.307Z,3.62
2017-05-21T14:23:50.178Z,2.28
2017-05-21T14:26:19.030Z,1.96
2017-05-21T14:28:47.875Z,2.12
2017-05-21T14:31:16.710Z,2.66
2017-05-21T14:33:45.630Z,2.12
2017-05-21T14:36:14.490Z,2.18
2017-05-21T14:38:43.320Z,2.08
2017-05-21T14:41:12.177Z,2.20
2017-05-21T14:43:41.008Z,1.84
2017-05-21T14:46:09.865Z,1.82
2017-05-21T14:48:38.737Z,1.90
2017-05-21T14:51:07.577Z,2.38
2017-05-21T14:53:36.417Z,1.94
2017-05-21T14:56:05.254Z,1.74
2017-05-21T14:58:34.103Z,1.84
2017-05-21T15:01:02.944Z,1.96
2017-05-21T15:03:31.787Z,4.50
2017-05-21T15:06:00.620Z,2.60
2017-05-21T15:08:29.478Z,2.12
2017-05-21T15:10:58.344Z,2.18
2017-05-21T15:13:27.251Z,3.04
2017-05-21T15:15:56.101Z,2.30
2017-05-21T15:18:24.943Z,1.92
2017-05-21T15:20:53.786Z,1.90
2017-05-21T15:23:22.612Z,2.14
2017-05-21T15:25:51.468Z,1.94
2017-05-21T15:28:20.299Z,2.50
2017-05-21T15:30:49.144Z,2.10
2017-05-21T15:33:17.981Z,2.04
2017-05-21T15:35:46.062Z,2.34
2017-05-21T15:38:14.888Z,2.18
2017-05-21T15:40:43.746Z,6.46
2017-05-21T15:43:12.567Z,2.98
2017-05-21T15:45:41.400Z,1.82
2017-05-21T15:48:10.257Z,1.98
2017-05-21T15:50:39.114Z,2.84
2017-05-21T15:53:07.962Z,2.10
2017-05-21T15:55:36.810Z,3.62
2017-05-21T15:58:05.660Z,1.84
2017-05-21T16:00:34.511Z,1.98
2017-05-21T16:03:03.349Z,2.00
2017-05-21T16:05:32.208Z,3.28
2017-05-21T16:08:01.065Z,3.00
2017-05-21T16:10:29.948Z,2.28
2017-05-21T16:12:58.020Z,2.20
2017-05-21T16:15:26.875Z,2.46
2017-05-21T16:17:55.716Z,2.20
2017-05-21T16:20:24.556Z,3.68
2017-05-21T16:22:53.402Z,4.46
2017-05-21T16:25:22.256Z,2.04
2017-05-21T16:27:51.102Z,2.62
2017-05-21T16:30:19.950Z,2.06
2017-05-21T16:32:48.775Z,2.06
2017-05-21T16:35:17.622Z,1.80
2017-05-21T16:37:46.460Z,2.52
2017-05-21T16:40:15.301Z,2.94
2017-05-21T16:42:44.205Z,2.42
2017-05-21T16:45:13.032Z,2.50
2017-05-21T16:47:41.864Z,3.46
2017-05-21T16:50:10.735Z,2.56
2017-05-21T16:52:39.569Z,2.54
2017-05-21T16:55:08.631Z,2.36
2017-05-21T16:57:37.527Z,6.02
2017-05-21T17:00:06.389Z,2.52
2017-05-21T17:02:35.236Z,2.24
2017-05-21T17:05:04.067Z,2.92
2017-05-21T17:07:32.904Z,1.88
2017-05-21T17:10:01.742Z,2.02
2017-05-21T17:12:30.589Z,2.08
2017-05-21T17:14:59.417Z,2.14
2017-05-21T17:17:28.283Z,2.40
2017-05-21T17:19:57.127Z,2.24
2017-05-21T17:22:25.983Z,2.54
2017-05-21T17:24:54.823Z,2.52
2017-05-21T17:27:23.658Z,2.18
2017-05-21T17:29:52.502Z,3.44
2017-05-21T17:32:21.350Z,2.36
2017-05-21T17:34:50.192Z,1.96
2017-05-21T17:37:19.091Z,2.86
2017-05-21T17:39:47.931Z,3.14
2017-05-21T17:42:16.807Z,2.32
2017-05-21T17:44:45.632Z,2.80
2017-05-21T17:47:14.506Z,2.80
2017-05-21T17:49:43.357Z,4.66
2017-05-21T17:52:12.234Z,4.96
2017-05-21T17:54:41.090Z,3.00
2017-05-21T17:57:09.933Z,3.40
2017-05-21T17:59:38.787Z,3.94
2017-05-21T18:02:07.643Z,4.26
2017-05-21T18:04:36.476Z,4.48
2017-05-21T18:07:05.339Z,4.10
2017-05-21T18:09:34.208Z,3.00
2017-05-21T18:12:03.063Z,4.78
2017-05-21T18:14:31.897Z,2.58
2017-05-21T18:17:00.724Z,2.36
2017-05-21T18:19:29.603Z,2.66
2017-05-21T18:21:58.442Z,2.88
2017-05-21T18:24:27.292Z,2.64
2017-05-21T18:26:56.156Z,2.42
2017-05-21T18:29:24.983Z,3.50
2017-05-21T18:31:53.817Z,3.46
2017-05-21T18:34:21.879Z,2.90
2017-05-21T18:36:49.984Z,3.56
2017-05-21T18:39:18.829Z,4.04
2017-05-21T18:41:47.655Z,3.32
2017-05-21T18:44:16.550Z,3.34
2017-05-21T18:46:45.397Z,5.14
2017-05-21T18:49:14.248Z,3.60
2017-05-21T18:51:43.100Z,3.58
2017-05-21T18:54:11.375Z,4.70
2017-05-21T18:56:40.209Z,3.12
2017-05-21T18:59:09.039Z,3.02
2017-05-21T19:01:37.884Z,3.26
2017-05-21T19:04:06.726Z,3.30
2017-05-21T19:06:35.575Z,4.10
2017-05-21T19:09:04.422Z,3.50
2017-05-21T19:11:32.477Z,3.86
2017-05-21T19:14:01.344Z,3.30
2017-05-21T19:16:30.167Z,4.48
2017-05-21T19:18:59.031Z,3.40
2017-05-21T19:21:27.884Z,3.74
2017-05-21T19:23:56.710Z,3.82
2017-05-21T19:26:25.551Z,4.06
2017-05-21T19:28:54.407Z,4.14
2017-05-21T19:31:23.246Z,4.02
2017-05-21T19:33:52.294Z,4.18
2017-05-21T19:36:21.152Z,4.40
2017-05-21T19:38:49.989Z,4.18
2017-05-21T19:41:18.835Z,4.90
2017-05-21T19:43:47.667Z,4.94
2017-05-21T19:46:16.514Z,4.84
2017-05-21T19:48:45.346Z,5.42
2017-05-21T19:51:14.207Z,6.26
2017-05-21T19:53:43.123Z,4.44
2017-05-21T19:56:11.968Z,5.88
2017-05-21T19:58:40.803Z,6.72
2017-05-21T20:01:09.671Z,6.42
2017-05-21T20:03:38.506Z,11.42
2017-05-21T20:06:07.366Z,18.40
2017-05-21T20:08:36.493Z,17.82
2017-05-21T20:11:05.327Z,11.32
2017-05-21T20:13:34.173Z,9.36
2017-05-21T20:16:03.005Z,5.38
2017-05-21T20:18:31.863Z,4.96
2017-05-21T20:20:59.920Z,6.50
2017-05-21T20:23:28.766Z,7.54
2017-05-21T20:25:57.596Z,6.58
2017-05-21T20:28:26.436Z,6.76
2017-05-21T20:30:55.286Z,5.96
2017-05-21T20:33:23.359Z,7.04
2017-05-21T20:35:52.203Z,7.14
2017-05-21T20:38:21.032Z,8.60
2017-05-21T20:40:49.898Z,9.54
2017-05-21T20:43:18.748Z,7.92
2017-05-21T20:45:47.571Z,8.32
2017-05-21T20:48:16.429Z,7.18
2017-05-21T20:50:45.277Z,6.72
2017-05-21T20:53:14.213Z,7.28
2017-05-21T20:55:42.280Z,4.50
2017-05-21T20:58:11.119Z,4.38
2017-05-21T21:00:39.963Z,4.90
2017-05-21T21:03:08.799Z,4.26
2017-05-21T21:05:37.646Z,4.40
2017-05-21T21:08:06.466Z,5.00
2017-05-21T21:10:35.303Z,4.84
2017-05-21T21:13:04.151Z,7.50
2017-05-21T21:15:33.013Z,5.02
2017-05-21T21:18:01.858Z,6.48
2017-05-21T21:20:29.919Z,4.84
2017-05-21T21:22:58.764Z,5.26
2017-05-21T21:25:27.592Z,5.80
2017-05-21T21:27:56.439Z,5.50
2017-05-21T21:30:25.281Z,4.54
2017-05-21T21:32:54.136Z,4.36
2017-05-21T21:35:22.968Z,4.90
2017-05-21T21:37:51.810Z,5.00
2017-05-21T21:40:20.662Z,5.62
2017-05-21T21:42:49.488Z,4.68
2017-05-21T21:45:18.315Z,5.16
2017-05-21T21:47:47.179Z,5.36
2017-05-21T21:50:15.263Z,4.74
2017-05-21T21:52:44.087Z,5.38
2017-05-21T21:55:12.915Z,5.32
2017-05-21T21:57:41.743Z,4.62
2017-05-21T22:00:10.588Z,5.16
2017-05-21T22:02:39.437Z,5.36
2017-05-21T22:05:08.278Z,6.54
2017-05-21T22:07:37.130Z,5.42
2017-05-21T22:10:05.983Z,5.50
2017-05-21T22:12:34.800Z,4.80
2017-05-21T22:15:03.637Z,4.60
2017-05-21T22:17:32.484Z,9.66
2017-05-21T22:20:01.334Z,6.60
2017-05-21T22:22:30.159Z,7.08
2017-05-21T22:24:59.036Z,5.90
2017-05-21T22:27:27.853Z,6.52
2017-05-21T22:29:56.678Z,5.82
2017-05-21T22:32:25.541Z,6.48
2017-05-21T22:34:54.387Z,6.08
2017-05-21T22:37:23.236Z,5.80
2017-05-21T22:39:52.075Z,5.78
2017-05-21T22:42:20.946Z,6.70
2017-05-21T22:44:49.780Z,8.60
2017-05-21T22:47:18.630Z,17.36
2017-05-21T22:49:46.695Z,9.00
2017-05-21T22:52:15.531Z,8.62
2017-05-21T22:54:43.599Z,8.22
2017-05-21T22:57:12.443Z,9.08
2017-05-21T22:59:41.306Z,6.82
2017-05-21T23:02:10.131Z,7.22
2017-05-21T23:04:38.982Z,7.98
2017-05-21T23:07:07.834Z,7.50
2017-05-21T23:09:36.664Z,7.50
2017-05-21T23:12:05.499Z,7.28
2017-05-21T23:14:33.584Z,7.56
2017-05-21T23:17:02.450Z,8.30
2017-05-21T23:19:31.300Z,7.80
2017-05-21T23:22:00.123Z,6.78
2017-05-21T23:24:28.973Z,6.54
2017-05-21T23:26:57.818Z,6.76
2017-05-21T23:29:26.647Z,7.90
2017-05-21T23:31:55.482Z,8.20
2017-05-21T23:34:24.430Z,7.42
2017-05-21T23:36:53.251Z,8.02
2017-05-21T23:39:22.099Z,7.64
2017-05-21T23:41:50.935Z,7.42
2017-05-21T23:44:19.767Z,8.44
2017-05-21T23:46:48.696Z,9.04
2017-05-21T23:49:18.679Z,8.82
2017-05-21T23:51:47.515Z,9.50
2017-05-21T23:54:16.365Z,10.28
2017-05-21T23:56:45.190Z,10.12
2017-05-21T23:59:14.028Z,9.66
